sensor_id;sensor_type;location;lat;lon;timestamp;P1;durP1;ratioP1;P2;durP2;ratioP2
51082;SDS011;37131;42.694;23.350;2023-07-31T00:00:04;1.98;;;1.10;;
51082;SDS011;37131;42.694;23.350;2023-07-31T00:02:29;1.40;;;0.90;;
51082;SDS011;37131;42.694;23.350;2023-07-31T00:04:55;1.77;;;1.00;;
51082;SDS011;37131;42.694;23.350;2023-07-31T00:07:20;2.13;;;1.23;;
51082;SDS011;37131;42.694;23.350;2023-07-31T00:09:46;3.55;;;1.10;;
51082;SDS011;37131;42.694;23.350;2023-07-31T00:12:11;2.35;;;1.05;;
51082;SDS011;37131;42.694;23.350;2023-07-31T00:14:36;2.03;;;1.00;;
51082;SDS011;37131;42.694;23.350;2023-07-31T00:17:02;1.98;;;1.10;;
51082;SDS011;37131;42.694;23.350;2023-07-31T00:19:27;1.80;;;0.90;;
51082;SDS011;37131;42.694;23.350;2023-07-31T00:21:53;2.22;;;1.30;;
51082;SDS011;37131;42.694;23.350;2023-07-31T00:24:18;1.90;;;1.23;;
51082;SDS011;37131;42.694;23.350;2023-07-31T00:26:43;3.20;;;1.27;;
51082;SDS011;37131;42.694;23.350;2023-07-31T00:29:09;2.53;;;1.08;;
51082;SDS011;37131;42.694;23.350;2023-07-31T00:31:34;1.70;;;1.10;;
51082;SDS011;37131;42.694;23.350;2023-07-31T00:33:59;1.90;;;0.95;;
51082;SDS011;37131;42.694;23.350;2023-07-31T00:36:25;1.95;;;1.30;;
51082;SDS011;37131;42.694;23.350;2023-07-31T00:38:50;2.35;;;1.48;;
51082;SDS011;37131;42.694;23.350;2023-07-31T00:41:16;2.25;;;1.17;;
51082;SDS011;37131;42.694;23.350;2023-07-31T00:43:41;4.45;;;1.10;;
51082;SDS011;37131;42.694;23.350;2023-07-31T00:46:06;1.67;;;1.00;;
51082;SDS011;37131;42.694;23.350;2023-07-31T00:48:32;2.25;;;1.30;;
51082;SDS011;37131;42.694;23.350;2023-07-31T00:50:58;1.90;;;1.10;;
51082;SDS011;37131;42.694;23.350;2023-07-31T00:53:26;2.15;;;1.30;;
51082;SDS011;37131;42.694;23.350;2023-07-31T00:55:52;4.03;;;1.30;;
51082;SDS011;37131;42.694;23.350;2023-07-31T00:58:18;2.00;;;1.33;;
51082;SDS011;37131;42.694;23.350;2023-07-31T01:00:43;2.13;;;1.40;;
51082;SDS011;37131;42.694;23.350;2023-07-31T01:03:09;2.88;;;1.60;;
51082;SDS011;37131;42.694;23.350;2023-07-31T01:11:19;3.00;;;1.92;;
51082;SDS011;37131;42.694;23.350;2023-07-31T01:13:49;4.57;;;2.55;;
51082;SDS011;37131;42.694;23.350;2023-07-31T01:16:15;4.47;;;3.00;;
51082;SDS011;37131;42.694;23.350;2023-07-31T01:18:40;3.75;;;2.50;;
51082;SDS011;37131;42.694;23.350;2023-07-31T01:21:23;4.63;;;3.15;;
51082;SDS011;37131;42.694;23.350;2023-07-31T01:26:49;5.70;;;3.35;;
51082;SDS011;37131;42.694;23.350;2023-07-31T01:29:23;6.05;;;3.50;;
51082;SDS011;37131;42.694;23.350;2023-07-31T01:32:03;5.50;;;3.45;;
51082;SDS011;37131;42.694;23.350;2023-07-31T01:34:31;5.15;;;3.53;;
51082;SDS011;37131;42.694;23.350;2023-07-31T01:36:57;5.78;;;3.47;;
51082;SDS011;37131;42.694;23.350;2023-07-31T01:39:23;10.38;;;3.90;;
51082;SDS011;37131;42.694;23.350;2023-07-31T01:41:49;7.13;;;4.47;;
51082;SDS011;37131;42.694;23.350;2023-07-31T01:44:14;7.22;;;4.00;;
51082;SDS011;37131;42.694;23.350;2023-07-31T01:46:39;7.68;;;4.35;;
51082;SDS011;37131;42.694;23.350;2023-07-31T01:49:05;7.28;;;4.07;;
51082;SDS011;37131;42.694;23.350;2023-07-31T01:51:31;7.80;;;4.68;;
51082;SDS011;37131;42.694;23.350;2023-07-31T01:53:59;9.05;;;5.20;;
51082;SDS011;37131;42.694;23.350;2023-07-31T01:56:25;8.95;;;4.78;;
51082;SDS011;37131;42.694;23.350;2023-07-31T01:58:50;9.18;;;5.43;;
51082;SDS011;37131;42.694;23.350;2023-07-31T02:01:16;9.18;;;5.30;;
51082;SDS011;37131;42.694;23.350;2023-07-31T02:03:41;8.68;;;4.97;;
51082;SDS011;37131;42.694;23.350;2023-07-31T02:06:07;11.80;;;5.40;;
51082;SDS011;37131;42.694;23.350;2023-07-31T02:08:32;10.98;;;6.13;;
51082;SDS011;37131;42.694;23.350;2023-07-31T02:10:58;9.13;;;5.53;;
51082;SDS011;37131;42.694;23.350;2023-07-31T02:13:23;11.10;;;5.38;;
51082;SDS011;37131;42.694;23.350;2023-07-31T02:15:49;10.23;;;5.88;;
51082;SDS011;37131;42.694;23.350;2023-07-31T02:18:15;8.93;;;5.72;;
51082;SDS011;37131;42.694;23.350;2023-07-31T02:20:41;10.50;;;6.13;;
51082;SDS011;37131;42.694;23.350;2023-07-31T02:23:06;12.52;;;6.70;;
51082;SDS011;37131;42.694;23.350;2023-07-31T02:25:31;9.75;;;5.70;;
51082;SDS011;37131;42.694;23.350;2023-07-31T02:27:57;10.77;;;5.85;;
51082;SDS011;37131;42.694;23.350;2023-07-31T02:30:22;8.68;;;5.53;;
51082;SDS011;37131;42.694;23.350;2023-07-31T02:32:48;11.00;;;6.22;;
51082;SDS011;37131;42.694;23.350;2023-07-31T02:35:13;8.65;;;5.30;;
51082;SDS011;37131;42.694;23.350;2023-07-31T02:37:40;11.13;;;6.43;;
51082;SDS011;37131;42.694;23.350;2023-07-31T02:40:06;10.60;;;6.32;;
51082;SDS011;37131;42.694;23.350;2023-07-31T02:42:32;9.70;;;5.72;;
51082;SDS011;37131;42.694;23.350;2023-07-31T02:44:58;11.40;;;6.45;;
51082;SDS011;37131;42.694;23.350;2023-07-31T02:47:23;11.07;;;6.60;;
51082;SDS011;37131;42.694;23.350;2023-07-31T02:49:48;10.27;;;6.47;;
51082;SDS011;37131;42.694;23.350;2023-07-31T02:52:14;9.70;;;6.13;;
51082;SDS011;37131;42.694;23.350;2023-07-31T02:54:39;11.02;;;6.68;;
51082;SDS011;37131;42.694;23.350;2023-07-31T02:57:05;11.50;;;6.97;;
51082;SDS011;37131;42.694;23.350;2023-07-31T02:59:30;11.50;;;6.70;;
51082;SDS011;37131;42.694;23.350;2023-07-31T03:01:56;11.25;;;6.45;;
51082;SDS011;37131;42.694;23.350;2023-07-31T03:04:21;12.35;;;7.03;;
51082;SDS011;37131;42.694;23.350;2023-07-31T03:06:46;12.50;;;6.97;;
51082;SDS011;37131;42.694;23.350;2023-07-31T03:09:12;10.93;;;6.25;;
51082;SDS011;37131;42.694;23.350;2023-07-31T03:11:37;16.05;;;6.65;;
51082;SDS011;37131;42.694;23.350;2023-07-31T03:14:03;12.63;;;6.97;;
51082;SDS011;37131;42.694;23.350;2023-07-31T03:16:28;9.63;;;6.07;;
51082;SDS011;37131;42.694;23.350;2023-07-31T03:18:54;11.52;;;6.65;;
51082;SDS011;37131;42.694;23.350;2023-07-31T03:21:19;10.13;;;5.95;;
51082;SDS011;37131;42.694;23.350;2023-07-31T03:23:45;11.55;;;6.00;;
51082;SDS011;37131;42.694;23.350;2023-07-31T03:26:10;12.20;;;6.55;;
51082;SDS011;37131;42.694;23.350;2023-07-31T03:28:36;11.50;;;6.28;;
51082;SDS011;37131;42.694;23.350;2023-07-31T03:31:01;10.57;;;6.15;;
51082;SDS011;37131;42.694;23.350;2023-07-31T03:33:27;12.95;;;6.68;;
51082;SDS011;37131;42.694;23.350;2023-07-31T03:35:52;11.20;;;6.60;;
51082;SDS011;37131;42.694;23.350;2023-07-31T03:38:18;9.95;;;6.13;;
51082;SDS011;37131;42.694;23.350;2023-07-31T03:40:44;11.27;;;6.30;;
51082;SDS011;37131;42.694;23.350;2023-07-31T03:43:10;11.68;;;6.65;;
51082;SDS011;37131;42.694;23.350;2023-07-31T03:45:36;10.73;;;6.28;;
51082;SDS011;37131;42.694;23.350;2023-07-31T03:48:01;12.25;;;6.38;;
51082;SDS011;37131;42.694;23.350;2023-07-31T03:50:27;10.27;;;6.35;;
51082;SDS011;37131;42.694;23.350;2023-07-31T03:52:52;12.77;;;6.63;;
51082;SDS011;37131;42.694;23.350;2023-07-31T03:55:18;12.38;;;6.70;;
51082;SDS011;37131;42.694;23.350;2023-07-31T03:57:43;11.63;;;6.53;;
51082;SDS011;37131;42.694;23.350;2023-07-31T04:00:09;11.88;;;6.25;;
51082;SDS011;37131;42.694;23.350;2023-07-31T04:02:35;12.65;;;7.25;;
51082;SDS011;37131;42.694;23.350;2023-07-31T04:05:00;10.80;;;6.53;;
51082;SDS011;37131;42.694;23.350;2023-07-31T04:07:26;11.38;;;6.72;;
51082;SDS011;37131;42.694;23.350;2023-07-31T04:09:51;11.77;;;6.57;;
51082;SDS011;37131;42.694;23.350;2023-07-31T04:12:16;12.55;;;6.90;;
51082;SDS011;37131;42.694;23.350;2023-07-31T04:14:42;16.17;;;7.10;;
51082;SDS011;37131;42.694;23.350;2023-07-31T04:17:07;13.25;;;6.60;;
51082;SDS011;37131;42.694;23.350;2023-07-31T04:19:33;12.15;;;6.82;;
51082;SDS011;37131;42.694;23.350;2023-07-31T04:21:58;13.55;;;6.78;;
51082;SDS011;37131;42.694;23.350;2023-07-31T04:24:23;13.85;;;7.43;;
51082;SDS011;37131;42.694;23.350;2023-07-31T04:26:49;12.88;;;7.68;;
51082;SDS011;37131;42.694;23.350;2023-07-31T04:29:16;14.98;;;7.60;;
51082;SDS011;37131;42.694;23.350;2023-07-31T04:31:41;12.43;;;6.93;;
51082;SDS011;37131;42.694;23.350;2023-07-31T04:34:07;12.07;;;6.88;;
51082;SDS011;37131;42.694;23.350;2023-07-31T04:36:33;14.18;;;7.55;;
51082;SDS011;37131;42.694;23.350;2023-07-31T04:38:59;13.95;;;7.60;;
51082;SDS011;37131;42.694;23.350;2023-07-31T04:41:25;13.60;;;6.90;;
51082;SDS011;37131;42.694;23.350;2023-07-31T04:43:50;13.32;;;7.53;;
51082;SDS011;37131;42.694;23.350;2023-07-31T04:46:16;13.40;;;6.97;;
51082;SDS011;37131;42.694;23.350;2023-07-31T04:48:42;12.35;;;6.95;;
51082;SDS011;37131;42.694;23.350;2023-07-31T04:51:07;11.63;;;7.13;;
51082;SDS011;37131;42.694;23.350;2023-07-31T04:53:34;14.63;;;7.43;;
51082;SDS011;37131;42.694;23.350;2023-07-31T04:56:00;13.02;;;6.95;;
51082;SDS011;37131;42.694;23.350;2023-07-31T04:58:25;11.20;;;6.47;;
51082;SDS011;37131;42.694;23.350;2023-07-31T05:00:51;13.35;;;6.70;;
51082;SDS011;37131;42.694;23.350;2023-07-31T05:03:16;11.63;;;6.05;;
51082;SDS011;37131;42.694;23.350;2023-07-31T05:05:41;11.13;;;6.32;;
51082;SDS011;37131;42.694;23.350;2023-07-31T05:08:07;11.30;;;6.22;;
51082;SDS011;37131;42.694;23.350;2023-07-31T05:10:32;10.32;;;6.10;;
51082;SDS011;37131;42.694;23.350;2023-07-31T05:12:57;10.60;;;6.82;;
51082;SDS011;37131;42.694;23.350;2023-07-31T05:15:23;11.95;;;6.65;;
51082;SDS011;37131;42.694;23.350;2023-07-31T05:17:48;10.00;;;6.15;;
51082;SDS011;37131;42.694;23.350;2023-07-31T05:20:14;11.25;;;6.90;;
51082;SDS011;37131;42.694;23.350;2023-07-31T05:22:40;10.40;;;6.25;;
51082;SDS011;37131;42.694;23.350;2023-07-31T05:25:05;9.88;;;5.85;;
51082;SDS011;37131;42.694;23.350;2023-07-31T05:27:31;9.77;;;5.35;;
51082;SDS011;37131;42.694;23.350;2023-07-31T05:29:57;10.20;;;5.40;;
51082;SDS011;37131;42.694;23.350;2023-07-31T05:32:23;9.60;;;5.25;;
51082;SDS011;37131;42.694;23.350;2023-07-31T05:34:50;10.60;;;4.97;;
51082;SDS011;37131;42.694;23.350;2023-07-31T05:37:19;9.15;;;5.53;;
51082;SDS011;37131;42.694;23.350;2023-07-31T05:39:44;7.85;;;4.90;;
51082;SDS011;37131;42.694;23.350;2023-07-31T05:42:10;8.75;;;4.93;;
51082;SDS011;37131;42.694;23.350;2023-07-31T05:44:35;10.68;;;4.40;;
51082;SDS011;37131;42.694;23.350;2023-07-31T05:47:01;7.10;;;4.68;;
51082;SDS011;37131;42.694;23.350;2023-07-31T05:49:26;7.43;;;4.57;;
51082;SDS011;37131;42.694;23.350;2023-07-31T05:51:52;7.50;;;4.55;;
51082;SDS011;37131;42.694;23.350;2023-07-31T05:54:17;6.20;;;3.85;;
51082;SDS011;37131;42.694;23.350;2023-07-31T05:56:42;8.93;;;3.88;;
51082;SDS011;37131;42.694;23.350;2023-07-31T05:59:08;6.18;;;3.47;;
51082;SDS011;37131;42.694;23.350;2023-07-31T06:01:35;6.43;;;3.80;;
51082;SDS011;37131;42.694;23.350;2023-07-31T06:04:01;4.53;;;3.40;;
51082;SDS011;37131;42.694;23.350;2023-07-31T06:06:28;7.40;;;3.55;;
51082;SDS011;37131;42.694;23.350;2023-07-31T06:08:54;5.55;;;3.33;;
51082;SDS011;37131;42.694;23.350;2023-07-31T06:11:20;4.63;;;2.83;;
51082;SDS011;37131;42.694;23.350;2023-07-31T06:13:45;6.45;;;3.10;;
51082;SDS011;37131;42.694;23.350;2023-07-31T06:16:13;4.85;;;2.95;;
51082;SDS011;37131;42.694;23.350;2023-07-31T06:18:39;4.40;;;2.95;;
51082;SDS011;37131;42.694;23.350;2023-07-31T06:21:04;5.35;;;2.80;;
51082;SDS011;37131;42.694;23.350;2023-07-31T06:23:30;4.30;;;2.20;;
51082;SDS011;37131;42.694;23.350;2023-07-31T06:25:56;3.75;;;2.25;;
51082;SDS011;37131;42.694;23.350;2023-07-31T06:28:23;3.35;;;1.92;;
51082;SDS011;37131;42.694;23.350;2023-07-31T06:30:53;4.57;;;2.33;;
51082;SDS011;37131;42.694;23.350;2023-07-31T06:33:18;4.20;;;1.83;;
51082;SDS011;37131;42.694;23.350;2023-07-31T06:35:43;4.72;;;2.03;;
51082;SDS011;37131;42.694;23.350;2023-07-31T06:38:09;3.88;;;2.05;;
51082;SDS011;37131;42.694;23.350;2023-07-31T06:40:34;5.00;;;2.08;;
51082;SDS011;37131;42.694;23.350;2023-07-31T06:42:59;2.88;;;1.90;;
51082;SDS011;37131;42.694;23.350;2023-07-31T06:45:31;4.28;;;2.00;;
51082;SDS011;37131;42.694;23.350;2023-07-31T06:47:56;3.22;;;2.05;;
51082;SDS011;37131;42.694;23.350;2023-07-31T06:50:26;3.40;;;2.15;;
51082;SDS011;37131;42.694;23.350;2023-07-31T06:52:51;3.22;;;1.98;;
51082;SDS011;37131;42.694;23.350;2023-07-31T06:55:18;2.90;;;1.70;;
51082;SDS011;37131;42.694;23.350;2023-07-31T06:57:45;2.70;;;1.73;;
51082;SDS011;37131;42.694;23.350;2023-07-31T07:00:11;3.72;;;1.70;;
51082;SDS011;37131;42.694;23.350;2023-07-31T07:02:37;3.17;;;2.00;;
51082;SDS011;37131;42.694;23.350;2023-07-31T07:05:02;2.80;;;1.58;;
51082;SDS011;37131;42.694;23.350;2023-07-31T07:07:28;3.15;;;1.70;;
51082;SDS011;37131;42.694;23.350;2023-07-31T07:09:53;2.28;;;1.27;;
51082;SDS011;37131;42.694;23.350;2023-07-31T07:12:18;2.58;;;1.48;;
51082;SDS011;37131;42.694;23.350;2023-07-31T07:14:44;5.22;;;1.80;;
51082;SDS011;37131;42.694;23.350;2023-07-31T07:17:11;3.25;;;1.50;;
51082;SDS011;37131;42.694;23.350;2023-07-31T07:19:40;2.03;;;1.45;;
51082;SDS011;37131;42.694;23.350;2023-07-31T07:22:06;1.85;;;1.20;;
51082;SDS011;37131;42.694;23.350;2023-07-31T07:24:32;2.40;;;1.25;;
51082;SDS011;37131;42.694;23.350;2023-07-31T07:26:57;2.97;;;1.40;;
51082;SDS011;37131;42.694;23.350;2023-07-31T07:29:22;2.75;;;1.55;;
51082;SDS011;37131;42.694;23.350;2023-07-31T07:31:48;3.15;;;1.60;;
51082;SDS011;37131;42.694;23.350;2023-07-31T07:34:13;2.67;;;1.60;;
51082;SDS011;37131;42.694;23.350;2023-07-31T07:36:38;1.60;;;1.17;;
51082;SDS011;37131;42.694;23.350;2023-07-31T07:39:04;2.85;;;1.27;;
51082;SDS011;37131;42.694;23.350;2023-07-31T07:41:30;2.38;;;1.50;;
51082;SDS011;37131;42.694;23.350;2023-07-31T07:43:55;2.25;;;1.15;;
51082;SDS011;37131;42.694;23.350;2023-07-31T07:46:21;2.42;;;1.30;;
51082;SDS011;37131;42.694;23.350;2023-07-31T07:48:46;2.33;;;1.35;;
51082;SDS011;37131;42.694;23.350;2023-07-31T07:51:11;1.90;;;1.38;;
51082;SDS011;37131;42.694;23.350;2023-07-31T07:53:37;2.17;;;1.23;;
51082;SDS011;37131;42.694;23.350;2023-07-31T07:56:02;1.85;;;1.20;;
51082;SDS011;37131;42.694;23.350;2023-07-31T07:58:28;1.85;;;1.20;;
51082;SDS011;37131;42.694;23.350;2023-07-31T08:00:53;2.80;;;1.20;;
51082;SDS011;37131;42.694;23.350;2023-07-31T08:03:18;1.92;;;1.10;;
51082;SDS011;37131;42.694;23.350;2023-07-31T08:05:44;3.50;;;1.23;;
51082;SDS011;37131;42.694;23.350;2023-07-31T08:08:14;4.93;;;1.30;;
51082;SDS011;37131;42.694;23.350;2023-07-31T08:10:42;3.55;;;1.60;;
51082;SDS011;37131;42.694;23.350;2023-07-31T08:13:11;1.77;;;1.00;;
51082;SDS011;37131;42.694;23.350;2023-07-31T08:15:37;2.63;;;1.13;;
51082;SDS011;37131;42.694;23.350;2023-07-31T08:18:02;1.63;;;1.02;;
51082;SDS011;37131;42.694;23.350;2023-07-31T08:20:28;2.65;;;1.50;;
51082;SDS011;37131;42.694;23.350;2023-07-31T08:22:53;4.93;;;1.42;;
51082;SDS011;37131;42.694;23.350;2023-07-31T08:25:18;2.20;;;1.40;;
51082;SDS011;37131;42.694;23.350;2023-07-31T08:27:44;2.67;;;1.25;;
51082;SDS011;37131;42.694;23.350;2023-07-31T08:30:11;2.00;;;1.10;;
51082;SDS011;37131;42.694;23.350;2023-07-31T08:32:37;2.28;;;1.20;;
51082;SDS011;37131;42.694;23.350;2023-07-31T08:35:02;1.30;;;0.90;;
51082;SDS011;37131;42.694;23.350;2023-07-31T08:37:28;2.72;;;1.45;;
51082;SDS011;37131;42.694;23.350;2023-07-31T08:39:53;1.98;;;1.25;;
51082;SDS011;37131;42.694;23.350;2023-07-31T08:42:19;1.70;;;1.10;;
51082;SDS011;37131;42.694;23.350;2023-07-31T08:44:45;3.70;;;1.13;;
51082;SDS011;37131;42.694;23.350;2023-07-31T08:47:12;3.10;;;1.20;;
51082;SDS011;37131;42.694;23.350;2023-07-31T08:49:38;2.80;;;1.27;;
51082;SDS011;37131;42.694;23.350;2023-07-31T08:52:05;2.97;;;1.15;;
51082;SDS011;37131;42.694;23.350;2023-07-31T08:54:31;2.22;;;1.20;;
51082;SDS011;37131;42.694;23.350;2023-07-31T08:56:58;3.00;;;1.10;;
51082;SDS011;37131;42.694;23.350;2023-07-31T08:59:25;2.22;;;1.27;;
51082;SDS011;37131;42.694;23.350;2023-07-31T09:01:54;1.90;;;1.00;;
51082;SDS011;37131;42.694;23.350;2023-07-31T09:04:23;2.53;;;0.93;;
51082;SDS011;37131;42.694;23.350;2023-07-31T09:06:49;2.30;;;1.02;;
51082;SDS011;37131;42.694;23.350;2023-07-31T09:09:19;2.42;;;1.08;;
51082;SDS011;37131;42.694;23.350;2023-07-31T09:11:45;1.70;;;1.02;;
51082;SDS011;37131;42.694;23.350;2023-07-31T09:14:11;3.38;;;0.88;;
51082;SDS011;37131;42.694;23.350;2023-07-31T09:16:51;3.00;;;1.13;;
51082;SDS011;37131;42.694;23.350;2023-07-31T09:19:34;2.10;;;1.15;;
51082;SDS011;37131;42.694;23.350;2023-07-31T09:22:04;1.80;;;0.80;;
51082;SDS011;37131;42.694;23.350;2023-07-31T09:24:30;2.03;;;1.20;;
51082;SDS011;37131;42.694;23.350;2023-07-31T09:26:57;2.25;;;1.30;;
51082;SDS011;37131;42.694;23.350;2023-07-31T09:29:24;2.38;;;1.10;;
51082;SDS011;37131;42.694;23.350;2023-07-31T09:31:51;1.35;;;0.80;;
51082;SDS011;37131;42.694;23.350;2023-07-31T09:34:17;3.28;;;1.15;;
51082;SDS011;37131;42.694;23.350;2023-07-31T09:36:43;1.33;;;0.88;;
51082;SDS011;37131;42.694;23.350;2023-07-31T09:39:10;1.52;;;1.13;;
51082;SDS011;37131;42.694;23.350;2023-07-31T09:41:37;2.65;;;1.00;;
51082;SDS011;37131;42.694;23.350;2023-07-31T09:44:03;3.90;;;1.05;;
51082;SDS011;37131;42.694;23.350;2023-07-31T09:46:29;2.72;;;1.10;;
51082;SDS011;37131;42.694;23.350;2023-07-31T09:49:03;1.85;;;0.90;;
51082;SDS011;37131;42.694;23.350;2023-07-31T09:51:36;1.85;;;0.98;;
51082;SDS011;37131;42.694;23.350;2023-07-31T09:54:09;0.95;;;0.63;;
51082;SDS011;37131;42.694;23.350;2023-07-31T09:56:41;1.90;;;0.80;;
51082;SDS011;37131;42.694;23.350;2023-07-31T09:59:12;1.02;;;0.68;;
51082;SDS011;37131;42.694;23.350;2023-07-31T10:01:40;2.30;;;1.38;;
51082;SDS011;37131;42.694;23.350;2023-07-31T10:04:07;1.70;;;0.82;;
51082;SDS011;37131;42.694;23.350;2023-07-31T10:06:34;1.73;;;0.90;;
51082;SDS011;37131;42.694;23.350;2023-07-31T10:09:01;1.75;;;0.90;;
51082;SDS011;37131;42.694;23.350;2023-07-31T10:11:30;1.30;;;0.70;;
51082;SDS011;37131;42.694;23.350;2023-07-31T10:14:02;1.58;;;0.90;;
51082;SDS011;37131;42.694;23.350;2023-07-31T10:16:29;1.20;;;0.65;;
51082;SDS011;37131;42.694;23.350;2023-07-31T10:18:56;1.13;;;0.60;;
51082;SDS011;37131;42.694;23.350;2023-07-31T10:21:22;1.17;;;0.60;;
51082;SDS011;37131;42.694;23.350;2023-07-31T10:23:48;1.02;;;0.63;;
51082;SDS011;37131;42.694;23.350;2023-07-31T10:26:16;1.08;;;0.70;;
51082;SDS011;37131;42.694;23.350;2023-07-31T10:28:44;2.25;;;0.60;;
51082;SDS011;37131;42.694;23.350;2023-07-31T10:31:11;1.58;;;0.60;;
51082;SDS011;37131;42.694;23.350;2023-07-31T10:33:38;1.30;;;0.75;;
51082;SDS011;37131;42.694;23.350;2023-07-31T10:36:17;2.13;;;0.73;;
51082;SDS011;37131;42.694;23.350;2023-07-31T10:38:44;1.58;;;0.80;;
51082;SDS011;37131;42.694;23.350;2023-07-31T10:41:09;0.98;;;0.50;;
51082;SDS011;37131;42.694;23.350;2023-07-31T10:43:38;1.45;;;0.80;;
51082;SDS011;37131;42.694;23.350;2023-07-31T10:46:07;1.05;;;0.60;;
51082;SDS011;37131;42.694;23.350;2023-07-31T10:48:34;1.10;;;0.68;;
51082;SDS011;37131;42.694;23.350;2023-07-31T10:51:02;2.13;;;1.02;;
51082;SDS011;37131;42.694;23.350;2023-07-31T10:53:36;1.25;;;0.60;;
51082;SDS011;37131;42.694;23.350;2023-07-31T10:56:03;1.65;;;0.77;;
51082;SDS011;37131;42.694;23.350;2023-07-31T10:58:30;1.00;;;0.73;;
51082;SDS011;37131;42.694;23.350;2023-07-31T11:00:58;1.38;;;0.70;;
51082;SDS011;37131;42.694;23.350;2023-07-31T11:03:25;1.35;;;0.60;;
51082;SDS011;37131;42.694;23.350;2023-07-31T11:06:05;1.25;;;0.60;;
51082;SDS011;37131;42.694;23.350;2023-07-31T11:08:31;1.02;;;0.60;;
51082;SDS011;37131;42.694;23.350;2023-07-31T11:13:32;1.58;;;0.65;;
51082;SDS011;37131;42.694;23.350;2023-07-31T11:15:59;1.20;;;0.60;;
51082;SDS011;37131;42.694;23.350;2023-07-31T11:18:26;1.40;;;0.63;;
51082;SDS011;37131;42.694;23.350;2023-07-31T11:20:52;0.77;;;0.50;;
51082;SDS011;37131;42.694;23.350;2023-07-31T11:23:19;3.28;;;0.85;;
51082;SDS011;37131;42.694;23.350;2023-07-31T11:25:45;0.90;;;0.70;;
51082;SDS011;37131;42.694;23.350;2023-07-31T11:28:12;3.08;;;0.73;;
51082;SDS011;37131;42.694;23.350;2023-07-31T11:30:39;1.63;;;0.70;;
51082;SDS011;37131;42.694;23.350;2023-07-31T11:33:09;1.40;;;0.60;;
51082;SDS011;37131;42.694;23.350;2023-07-31T11:35:40;2.17;;;0.52;;
51082;SDS011;37131;42.694;23.350;2023-07-31T11:38:23;1.25;;;0.60;;
51082;SDS011;37131;42.694;23.350;2023-07-31T11:40:49;0.90;;;0.43;;
51082;SDS011;37131;42.694;23.350;2023-07-31T11:43:15;1.30;;;0.68;;
51082;SDS011;37131;42.694;23.350;2023-07-31T11:45:46;1.38;;;0.60;;
51082;SDS011;37131;42.694;23.350;2023-07-31T11:48:20;2.70;;;0.73;;
51082;SDS011;37131;42.694;23.350;2023-07-31T11:50:50;2.13;;;0.95;;
51082;SDS011;37131;42.694;23.350;2023-07-31T11:53:17;1.73;;;0.93;;
51082;SDS011;37131;42.694;23.350;2023-07-31T11:55:45;0.90;;;0.60;;
51082;SDS011;37131;42.694;23.350;2023-07-31T11:58:11;1.90;;;1.10;;
51082;SDS011;37131;42.694;23.350;2023-07-31T12:00:40;1.35;;;0.68;;
51082;SDS011;37131;42.694;23.350;2023-07-31T12:03:05;1.67;;;0.90;;
51082;SDS011;37131;42.694;23.350;2023-07-31T12:05:31;1.35;;;0.88;;
51082;SDS011;37131;42.694;23.350;2023-07-31T12:07:57;1.50;;;0.70;;
51082;SDS011;37131;42.694;23.350;2023-07-31T12:10:27;1.73;;;0.90;;
51082;SDS011;37131;42.694;23.350;2023-07-31T12:12:58;1.55;;;0.90;;
51082;SDS011;37131;42.694;23.350;2023-07-31T12:15:28;1.50;;;0.90;;
51082;SDS011;37131;42.694;23.350;2023-07-31T12:18:07;1.90;;;1.20;;
51082;SDS011;37131;42.694;23.350;2023-07-31T12:20:41;1.98;;;1.30;;
51082;SDS011;37131;42.694;23.350;2023-07-31T12:23:21;2.47;;;1.38;;
51082;SDS011;37131;42.694;23.350;2023-07-31T12:26:07;2.20;;;1.17;;
51082;SDS011;37131;42.694;23.350;2023-07-31T12:28:48;2.17;;;1.17;;
51082;SDS011;37131;42.694;23.350;2023-07-31T12:31:15;2.97;;;1.33;;
51082;SDS011;37131;42.694;23.350;2023-07-31T12:33:45;2.88;;;1.73;;
51082;SDS011;37131;42.694;23.350;2023-07-31T12:36:14;2.75;;;1.40;;
51082;SDS011;37131;42.694;23.350;2023-07-31T12:38:41;2.30;;;1.40;;
51082;SDS011;37131;42.694;23.350;2023-07-31T12:41:07;2.22;;;1.52;;
51082;SDS011;37131;42.694;23.350;2023-07-31T12:43:34;2.60;;;1.65;;
51082;SDS011;37131;42.694;23.350;2023-07-31T12:46:00;2.92;;;1.58;;
51082;SDS011;37131;42.694;23.350;2023-07-31T12:48:25;2.00;;;1.38;;
51082;SDS011;37131;42.694;23.350;2023-07-31T12:50:50;2.30;;;1.67;;
51082;SDS011;37131;42.694;23.350;2023-07-31T12:53:16;3.30;;;1.70;;
51082;SDS011;37131;42.694;23.350;2023-07-31T12:55:41;3.03;;;1.63;;
51082;SDS011;37131;42.694;23.350;2023-07-31T12:58:07;2.97;;;1.80;;
51082;SDS011;37131;42.694;23.350;2023-07-31T13:00:32;5.55;;;1.83;;
51082;SDS011;37131;42.694;23.350;2023-07-31T13:02:58;2.30;;;1.63;;
51082;SDS011;37131;42.694;23.350;2023-07-31T13:05:25;8.68;;;1.88;;
51082;SDS011;37131;42.694;23.350;2023-07-31T13:07:50;3.03;;;1.95;;
51082;SDS011;37131;42.694;23.350;2023-07-31T13:10:16;3.28;;;1.90;;
51082;SDS011;37131;42.694;23.350;2023-07-31T13:12:41;4.68;;;1.92;;
51082;SDS011;37131;42.694;23.350;2023-07-31T13:15:07;5.07;;;2.30;;
51082;SDS011;37131;42.694;23.350;2023-07-31T13:17:32;3.28;;;1.65;;
51082;SDS011;37131;42.694;23.350;2023-07-31T13:19:58;2.97;;;1.48;;
51082;SDS011;37131;42.694;23.350;2023-07-31T13:22:24;3.00;;;1.85;;
51082;SDS011;37131;42.694;23.350;2023-07-31T13:24:49;2.53;;;1.60;;
51082;SDS011;37131;42.694;23.350;2023-07-31T13:27:15;2.75;;;1.70;;
51082;SDS011;37131;42.694;23.350;2023-07-31T13:29:45;2.50;;;1.60;;
51082;SDS011;37131;42.694;23.350;2023-07-31T13:32:11;2.58;;;1.60;;
51082;SDS011;37131;42.694;23.350;2023-07-31T13:34:37;2.00;;;1.58;;
51082;SDS011;37131;42.694;23.350;2023-07-31T13:37:02;2.22;;;1.60;;
51082;SDS011;37131;42.694;23.350;2023-07-31T13:39:28;1.80;;;1.23;;
51082;SDS011;37131;42.694;23.350;2023-07-31T13:41:53;3.67;;;1.67;;
51082;SDS011;37131;42.694;23.350;2023-07-31T13:44:19;2.10;;;1.35;;
51082;SDS011;37131;42.694;23.350;2023-07-31T13:46:45;2.20;;;1.48;;
51082;SDS011;37131;42.694;23.350;2023-07-31T13:49:10;1.80;;;1.40;;
51082;SDS011;37131;42.694;23.350;2023-07-31T13:51:36;3.17;;;1.70;;
51082;SDS011;37131;42.694;23.350;2023-07-31T13:54:03;4.18;;;1.70;;
51082;SDS011;37131;42.694;23.350;2023-07-31T13:56:29;1.50;;;1.10;;
51082;SDS011;37131;42.694;23.350;2023-07-31T13:58:54;1.67;;;1.25;;
51082;SDS011;37131;42.694;23.350;2023-07-31T14:01:19;2.45;;;1.40;;
51082;SDS011;37131;42.694;23.350;2023-07-31T14:03:45;1.58;;;1.10;;
51082;SDS011;37131;42.694;23.350;2023-07-31T14:06:10;3.28;;;1.60;;
51082;SDS011;37131;42.694;23.350;2023-07-31T14:08:36;1.92;;;1.40;;
51082;SDS011;37131;42.694;23.350;2023-07-31T14:11:01;2.20;;;1.52;;
51082;SDS011;37131;42.694;23.350;2023-07-31T14:13:27;2.47;;;1.52;;
51082;SDS011;37131;42.694;23.350;2023-07-31T14:15:52;3.00;;;1.45;;
51082;SDS011;37131;42.694;23.350;2023-07-31T14:18:18;2.13;;;1.50;;
51082;SDS011;37131;42.694;23.350;2023-07-31T14:20:43;2.40;;;1.63;;
51082;SDS011;37131;42.694;23.350;2023-07-31T14:23:09;2.85;;;1.73;;
51082;SDS011;37131;42.694;23.350;2023-07-31T14:25:34;4.80;;;1.40;;
51082;SDS011;37131;42.694;23.350;2023-07-31T14:27:59;2.22;;;1.33;;
51082;SDS011;37131;42.694;23.350;2023-07-31T14:30:25;1.90;;;1.40;;
51082;SDS011;37131;42.694;23.350;2023-07-31T14:32:50;7.72;;;1.45;;
51082;SDS011;37131;42.694;23.350;2023-07-31T14:35:16;1.70;;;1.27;;
51082;SDS011;37131;42.694;23.350;2023-07-31T14:37:42;2.55;;;1.30;;